Time;durP1;ratioP1;P1;durP2;ratioP2;P2;SDS_P1;SDS_P2;PMS_P1;PMS_P2;Temp;Humidity;BMP_temperature;BMP_pressure;BME280_temperature;BME280_humidity;BME280_pressure;Samples;Min_cycle;Max_cycle;Signal;HPM_P1;HPM_P2
2022/12/19 00:00:46;;;;;;;29.30;11.20;;;0.50;99.90;;;;;;5034867;28;20135;-77
2022/12/19 00:03:13;;;;;;;25.63;10.38;;;0.50;99.90;;;;;;5033517;28;20445;-77
2022/12/19 00:05:39;;;;;;;;;;;0.50;99.90;;;;;;5034977;28;20138;-77
2022/12/19 00:08:13;;;;;;;29.25;10.93;;;0.50;99.90;;;;;;5050265;28;19925;-77
2022/12/19 00:10:39;;;;;;;28.50;11.35;;;0.50;99.90;;;;;;5063497;28;20059;-77
2022/12/19 00:13:04;;;;;;;25.55;10.70;;;0.70;99.90;;;;;;5064552;28;20628;-77
2022/12/19 00:15:32;;;;;;;28.40;11.00;;;0.50;99.90;;;;;;5033877;28;20049;-77
2022/12/19 00:17:58;;;;;;;26.15;12.52;;;0.50;99.90;;;;;;5057960;28;20123;-77
2022/12/19 00:20:24;;;;;;;22.98;9.48;;;0.50;99.90;;;;;;5071327;28;20151;-77
2022/12/19 00:22:49;;;;;;;26.67;11.45;;;0.50;99.90;;;;;;5071106;28;20716;-77
2022/12/19 00:25:15;;;;;;;30.65;10.10;;;0.50;99.90;;;;;;5070484;28;20044;-77
2022/12/19 00:27:41;;;;;;;26.90;10.38;;;0.60;99.90;;;;;;5071840;28;20041;-77
2022/12/19 00:30:07;;;;;;;30.70;11.82;;;0.60;99.90;;;;;;5070796;28;20481;-77
2022/12/19 00:32:32;;;;;;;;;;;0.60;99.90;;;;;;5053946;28;20080;-77
2022/12/19 00:34:58;;;;;;;25.85;9.85;;;0.60;99.90;;;;;;5071794;28;19962;-77
2022/12/19 00:37:24;;;;;;;28.10;11.98;;;0.70;99.90;;;;;;5070825;28;20662;-77
2022/12/19 00:39:49;;;;;;;24.33;9.60;;;0.60;99.90;;;;;;5070281;28;20087;-77
2022/12/19 00:42:15;;;;;;;23.13;9.88;;;0.60;99.90;;;;;;5052233;28;20063;-77
2022/12/19 00:44:41;;;;;;;28.13;11.40;;;0.60;99.90;;;;;;5033599;28;20145;-77
2022/12/19 00:47:06;;;;;;;25.45;9.93;;;0.70;99.90;;;;;;5033037;28;20060;-77
2022/12/19 00:49:32;;;;;;;26.13;10.20;;;0.70;99.90;;;;;;5051445;28;20055;-77
2022/12/19 00:51:58;;;;;;;29.60;10.55;;;1.20;99.90;;;;;;5070800;28;20041;-77
2022/12/19 00:54:24;;;;;;;28.27;10.73;;;0.70;99.90;;;;;;5042115;28;20049;-77
2022/12/19 00:56:50;;;;;;;26.85;10.38;;;0.80;99.90;;;;;;5051049;28;20079;-77
2022/12/19 00:59:15;;;;;;;30.80;11.02;;;0.80;99.90;;;;;;5068531;28;20051;-77
2022/12/19 01:01:41;;;;;;;23.88;11.15;;;0.80;99.90;;;;;;5060664;28;20068;-77
2022/12/19 01:04:12;;;;;;;32.08;10.50;;;0.90;99.90;;;;;;5050859;28;20056;-77
2022/12/19 01:06:37;;;;;;;24.73;9.30;;;0.90;99.90;;;;;;5033096;28;20045;-77
2022/12/19 01:09:03;;;;;;;25.08;9.32;;;1.00;99.90;;;;;;5049762;28;20061;-77
2022/12/19 01:14:14;;;;;;;20.48;8.75;;;1.10;99.90;;;;;;5049231;28;20106;-77
2022/12/19 01:16:40;;;;;;;31.30;11.23;;;0.90;99.90;;;;;;5032363;28;20067;-77
2022/12/19 01:19:06;;;;;;;27.75;9.43;;;0.90;99.90;;;;;;5060294;28;20044;-77
2022/12/19 01:21:32;;;;;;;26.10;10.05;;;0.90;99.90;;;;;;5049523;28;20144;-77
2022/12/19 01:23:58;;;;;;;27.40;11.02;;;0.90;99.90;;;;;;5049948;28;20152;-77
2022/12/19 01:26:23;;;;;;;28.75;11.77;;;0.90;99.90;;;;;;5032435;28;20202;-77
2022/12/19 01:28:49;;;;;;;29.27;9.93;;;1.10;99.90;;;;;;5050607;28;20114;-77
2022/12/19 01:31:14;;;;;;;34.80;13.23;;;1.00;99.90;;;;;;5049653;28;20051;-77
2022/12/19 01:33:40;;;;;;;26.65;10.27;;;1.00;99.90;;;;;;5056377;28;20441;-77
2022/12/19 01:36:06;;;;;;;31.13;11.00;;;1.00;99.90;;;;;;5069990;28;20044;-77
2022/12/19 01:38:32;;;;;;;;;;;1.00;99.90;;;;;;5071028;28;20048;-77
2022/12/19 01:40:58;;;;;;;30.00;11.65;;;1.00;99.90;;;;;;5066818;28;20385;-77
2022/12/19 01:43:27;;;;;;;31.90;10.98;;;1.00;99.90;;;;;;5069657;28;20091;-77
2022/12/19 01:46:04;;;;;;;27.60;11.10;;;1.10;99.90;;;;;;5070724;28;20052;-77
2022/12/19 01:48:41;;;;;;;30.90;11.88;;;1.10;99.90;;;;;;5057200;28;20047;-77
2022/12/19 01:51:14;;;;;;;27.25;11.35;;;1.10;99.90;;;;;;5032253;28;20111;-77
2022/12/19 01:53:48;;;;;;;25.70;11.05;;;1.10;99.90;;;;;;5032916;28;20041;-77
2022/12/19 01:56:14;;;;;;;22.38;9.68;;;1.10;99.90;;;;;;5045907;28;20078;-77
2022/12/19 01:58:45;;;;;;;25.85;11.98;;;1.10;99.90;;;;;;5070234;28;20075;-77
2022/12/19 02:01:12;;;;;;;26.25;10.32;;;1.10;99.90;;;;;;5060011;28;20478;-77
2022/12/19 02:03:39;;;;;;;34.20;11.40;;;1.10;99.90;;;;;;5032744;28;20099;-77
2022/12/19 02:06:07;;;;;;;28.65;11.20;;;1.40;99.90;;;;;;5032214;28;20059;-77
2022/12/19 02:08:34;;;;;;;23.13;9.45;;;1.20;99.90;;;;;;5035883;28;20494;-77
2022/12/19 02:11:00;;;;;;;28.05;9.85;;;1.20;99.90;;;;;;5053278;28;20521;-77
2022/12/19 02:13:25;;;;;;;23.77;10.43;;;1.20;99.90;;;;;;5042627;28;20073;-77
2022/12/19 02:16:01;;;;;;;25.92;10.13;;;1.20;99.90;;;;;;5069736;28;20099;-77
2022/12/19 02:18:36;;;;;;;28.20;11.13;;;1.20;99.90;;;;;;5068392;28;20052;-77
2022/12/19 02:21:32;;;;;;;28.50;10.20;;;1.20;99.90;;;;;;5068696;28;20083;-77
2022/12/19 02:24:10;;;;;;;30.83;10.80;;;1.30;99.90;;;;;;5069053;28;20084;-77
2022/12/19 02:26:49;;;;;;;28.52;10.32;;;1.30;99.90;;;;;;5066633;28;20052;-77
2022/12/19 02:29:33;;;;;;;21.85;10.15;;;1.30;99.90;;;;;;5034900;28;20405;-77
2022/12/19 02:32:13;;;;;;;28.55;10.75;;;1.30;99.90;;;;;;5051569;28;20759;-77
2022/12/19 02:34:42;;;;;;;29.00;10.60;;;1.30;99.90;;;;;;5070248;28;20112;-77
2022/12/19 02:37:18;;;;;;;25.33;10.10;;;1.80;99.90;;;;;;5069496;28;20036;-77
2022/12/19 02:39:52;;;;;;;31.15;11.20;;;1.30;99.90;;;;;;5070298;28;20076;-77
2022/12/19 02:42:40;;;;;;;25.33;10.38;;;1.30;99.90;;;;;;5069240;28;20064;-77
2022/12/19 02:45:10;;;;;;;28.98;11.18;;;1.20;99.90;;;;;;5073056;28;20049;-77
2022/12/19 02:47:37;;;;;;;28.83;10.13;;;1.20;99.90;;;;;;5070729;28;20044;-77
2022/12/19 02:50:03;;;;;;;30.95;12.60;;;1.20;99.90;;;;;;5073680;28;20048;-77
2022/12/19 02:52:29;;;;;;;27.70;10.40;;;1.20;99.90;;;;;;5072571;28;20474;-77
2022/12/19 02:54:59;;;;;;;37.42;12.05;;;1.30;99.90;;;;;;5058310;28;20048;-77
2022/12/19 02:57:45;;;;;;;29.48;11.68;;;1.30;99.90;;;;;;5052016;28;20474;-77
2022/12/19 03:00:19;;;;;;;26.88;10.93;;;1.30;99.90;;;;;;5035849;28;20132;-77
2022/12/19 03:03:08;;;;;;;31.17;11.32;;;1.60;99.90;;;;;;5052917;28;20414;-77
2022/12/19 03:06:15;;;;;;;35.13;11.73;;;1.30;99.90;;;;;;5064727;28;20355;-76
2022/12/19 03:08:59;;;;;;;32.55;11.60;;;1.20;99.90;;;;;;5066108;28;20154;-77
2022/12/19 03:11:34;;;;;;;22.98;9.93;;;1.30;99.90;;;;;;5052535;28;20049;-77
2022/12/19 03:14:08;;;;;;;33.60;10.85;;;1.30;99.90;;;;;;5053109;28;20048;-77
2022/12/19 03:16:36;;;;;;;33.88;13.10;;;1.30;99.90;;;;;;5052284;28;20060;-77
2022/12/19 03:19:03;;;;;;;32.25;11.50;;;1.30;99.90;;;;;;5053416;28;20056;-77
2022/12/19 03:21:41;;;;;;;28.40;10.50;;;1.30;99.90;;;;;;5056354;28;20045;-77
2022/12/19 03:24:09;;;;;;;33.13;12.77;;;1.30;99.90;;;;;;5073240;28;20036;-77
2022/12/19 03:27:07;;;;;;;31.70;12.10;;;1.30;99.90;;;;;;5052285;28;20533;-77
2022/12/19 03:29:48;;;;;;;34.30;11.88;;;1.30;99.90;;;;;;5052469;28;20106;-77
2022/12/19 03:32:15;;;;;;;30.25;10.48;;;1.40;99.90;;;;;;5072472;28;20048;-77
2022/12/19 03:34:49;;;;;;;32.05;12.35;;;1.40;99.90;;;;;;5072849;28;20037;-77
2022/12/19 03:37:18;;;;;;;32.65;11.60;;;1.50;99.90;;;;;;5054623;28;20052;-77
2022/12/19 03:39:49;;;;;;;34.95;12.45;;;1.50;99.90;;;;;;5070972;28;20052;-77
2022/12/19 03:45:03;;;;;;;36.13;11.80;;;1.60;99.90;;;;;;5051446;28;20092;-77
2022/12/19 03:47:45;;;;;;;29.65;10.73;;;1.60;99.90;;;;;;5068271;28;20048;-77
2022/12/19 03:50:11;;;;;;;24.73;11.63;;;1.70;99.90;;;;;;5070346;28;20056;-77
2022/12/19 03:53:10;;;;;;;34.97;12.00;;;1.70;99.90;;;;;;5053847;28;20052;-77
2022/12/19 03:56:05;;;;;;;26.88;10.45;;;1.70;99.90;;;;;;5047620;28;20091;-77
2022/12/19 03:58:36;;;;;;;31.10;10.68;;;1.70;99.90;;;;;;5071715;28;20131;-77
2022/12/19 04:01:03;;;;;;;32.72;12.18;;;1.80;99.90;;;;;;5057136;28;20080;-77
2022/12/19 04:03:30;;;;;;;36.25;13.05;;;1.80;99.90;;;;;;5051326;28;20486;-77
2022/12/19 04:05:59;;;;;;;36.55;12.75;;;1.80;99.90;;;;;;5034074;28;20421;-77
2022/12/19 04:08:25;;;;;;;26.02;10.35;;;1.80;99.90;;;;;;5051829;28;20048;-77
2022/12/19 04:10:58;;;;;;;25.67;9.88;;;1.90;99.90;;;;;;5055440;28;20107;-77
2022/12/19 04:13:37;;;;;;;25.02;10.45;;;1.90;99.90;;;;;;5051413;28;20421;-77
2022/12/19 04:16:16;;;;;;;36.03;12.45;;;1.90;99.90;;;;;;5051888;28;20053;-77
2022/12/19 04:18:50;;;;;;;34.42;11.38;;;2.00;99.90;;;;;;5034196;28;20415;-77
2022/12/19 04:21:27;;;;;;;34.38;13.00;;;2.00;99.90;;;;;;5050353;28;20071;-77
2022/12/19 04:24:20;;;;;;;34.95;13.38;;;2.00;99.90;;;;;;5051966;28;20086;-77
2022/12/19 04:26:50;;;;;;;33.00;13.45;;;2.00;99.90;;;;;;5051561;28;20120;-77
2022/12/19 04:29:18;;;;;;;43.00;13.40;;;2.00;99.90;;;;;;5051564;28;20045;-77
2022/12/19 04:31:43;;;;;;;27.35;10.55;;;2.10;99.90;;;;;;5050711;28;20092;-77
2022/12/19 04:34:09;;;;;;;37.40;13.57;;;2.10;99.90;;;;;;5055313;28;20072;-77
2022/12/19 04:36:35;;;;;;;33.92;12.55;;;2.10;99.90;;;;;;5052328;28;20553;-77
2022/12/19 04:39:01;;;;;;;33.90;11.95;;;2.40;99.90;;;;;;5061274;28;20064;-77
2022/12/19 04:41:26;;;;;;;36.13;11.70;;;2.10;99.90;;;;;;5058828;28;20056;-77
2022/12/19 04:43:52;;;;;;;32.25;13.45;;;2.10;99.90;;;;;;5070831;28;20051;-77
2022/12/19 04:46:17;;;;;;;24.17;10.10;;;2.30;99.90;;;;;;5071023;28;20044;-77
2022/12/19 04:48:43;;;;;;;30.88;12.00;;;2.20;99.90;;;;;;5071037;28;20052;-76
2022/12/19 04:51:09;;;;;;;38.42;12.63;;;2.30;99.90;;;;;;5052917;28;20040;-77
2022/12/19 04:53:35;;;;;;;37.38;11.23;;;2.30;99.90;;;;;;5070826;28;20051;-76
2022/12/19 04:56:02;;;;;;;28.13;10.52;;;2.30;99.90;;;;;;5071335;28;20088;-77
2022/12/19 04:58:28;;;;;;;32.00;11.25;;;2.50;99.90;;;;;;5070357;28;20052;-77
2022/12/19 05:00:54;;;;;;;;;;;2.50;99.90;;;;;;5071418;28;20569;-77
2022/12/19 05:03:20;;;;;;;29.45;11.75;;;2.70;99.90;;;;;;5049911;28;19924;-77
2022/12/19 05:05:45;;;;;;;41.22;15.25;;;2.80;99.90;;;;;;5068365;28;20125;-77
2022/12/19 05:08:11;;;;;;;35.97;14.13;;;2.90;99.90;;;;;;5052514;28;20044;-77
2022/12/19 05:10:36;;;;;;;32.13;12.48;;;3.00;99.90;;;;;;5041682;28;20044;-77
2022/12/19 05:13:02;;;;;;;35.95;14.23;;;3.00;99.90;;;;;;5037035;28;20145;-77
2022/12/19 05:15:28;;;;;;;32.25;13.80;;;3.10;99.90;;;;;;5070248;28;20127;-77
2022/12/19 05:17:54;;;;;;;34.58;13.50;;;3.10;99.90;;;;;;5045898;28;20084;-77
2022/12/19 05:20:19;;;;;;;28.08;11.93;;;3.10;99.90;;;;;;5031308;28;20057;-77
2022/12/19 05:22:45;;;;;;;31.38;12.57;;;3.20;99.90;;;;;;5030031;28;20609;-77
2022/12/19 05:25:11;;;;;;;32.70;12.05;;;3.20;99.90;;;;;;5021043;28;20065;-77
2022/12/19 05:27:36;;;;;;;26.95;12.05;;;3.20;99.90;;;;;;5009679;28;20089;-77
2022/12/19 05:30:02;;;;;;;41.05;15.00;;;3.40;99.90;;;;;;5011054;28;20046;-77
2022/12/19 05:32:32;;;;;;;32.38;11.98;;;3.30;99.90;;;;;;5009735;28;20452;-77
2022/12/19 05:34:58;;;;;;;37.45;13.70;;;3.40;99.90;;;;;;5010118;28;20064;-77
2022/12/19 05:37:23;;;;;;;30.60;11.57;;;3.50;99.90;;;;;;5009789;28;20586;-77
2022/12/19 05:39:49;;;;;;;37.65;14.85;;;3.50;99.90;;;;;;5024538;28;20057;-77
2022/12/19 05:42:15;;;;;;;38.25;13.38;;;3.70;99.90;;;;;;5030374;28;20483;-77
2022/12/19 05:44:40;;;;;;;32.63;14.07;;;3.60;99.90;;;;;;5028773;28;20402;-77
2022/12/19 05:47:06;;;;;;;36.83;14.88;;;3.90;99.90;;;;;;5013270;28;20045;-77
2022/12/19 05:49:32;;;;;;;;;;;3.70;99.90;;;;;;5013420;28;20096;-77
2022/12/19 05:51:58;;;;;;;34.45;12.23;;;3.80;99.90;;;;;;5030065;28;20321;-77
2022/12/19 05:54:23;;;;;;;30.42;12.52;;;3.80;99.90;;;;;;5019045;28;20053;-77
2022/12/19 05:56:49;;;;;;;33.53;14.32;;;3.80;99.90;;;;;;5027298;28;20053;-77
2022/12/19 05:59:14;;;;;;;36.65;13.95;;;3.90;99.90;;;;;;5029265;28;20060;-76
2022/12/19 06:01:41;;;;;;;33.70;12.90;;;3.90;99.90;;;;;;5027989;28;20092;-76
2022/12/19 06:04:06;;;;;;;28.98;10.68;;;3.90;99.90;;;;;;5030592;28;20049;-77
2022/12/19 06:06:32;;;;;;;33.50;13.77;;;3.80;99.90;;;;;;5028467;28;20053;-76
2022/12/19 06:08:58;;;;;;;32.65;13.30;;;3.90;99.90;;;;;;5030607;28;20049;-76
2022/12/19 06:11:25;;;;;;;24.75;12.02;;;4.00;99.90;;;;;;5028579;28;20106;-77
2022/12/19 06:13:51;;;;;;;29.13;10.73;;;3.90;99.90;;;;;;5029647;28;20171;-77
2022/12/19 06:16:20;;;;;;;28.65;12.35;;;4.00;99.90;;;;;;5039885;28;20113;-76
2022/12/19 06:18:46;;;;;;;32.05;12.73;;;4.10;99.90;;;;;;5073830;28;20064;-77
2022/12/19 06:21:13;;;;;;;;;;;4.10;99.90;;;;;;5060409;28;20115;-77
2022/12/19 06:23:39;;;;;;;25.00;11.70;;;4.10;99.90;;;;;;5055955;28;19920;-77
2022/12/19 06:26:07;;;;;;;34.22;12.45;;;4.10;99.90;;;;;;5073822;28;20052;-77
2022/12/19 06:28:34;;;;;;;35.30;13.20;;;4.10;99.90;;;;;;5073675;28;20549;-77
2022/12/19 06:31:03;;;;;;;34.00;13.27;;;4.10;99.90;;;;;;5072000;28;20044;-76
2022/12/19 06:33:30;;;;;;;30.52;13.00;;;4.10;99.90;;;;;;5073845;28;20067;-77
2022/12/19 06:36:09;;;;;;;28.55;11.85;;;4.20;99.90;;;;;;5055906;28;20045;-76
2022/12/19 06:38:35;;;;;;;32.92;13.13;;;4.20;99.90;;;;;;5053699;28;20056;-76
2022/12/19 06:43:47;;;;;;;34.20;12.57;;;4.30;99.90;;;;;;5069607;28;20067;-76
2022/12/19 06:46:13;;;;;;;29.25;12.52;;;4.20;99.90;;;;;;5054186;28;20524;-76
2022/12/19 06:48:38;;;;;;;31.70;13.02;;;4.30;99.90;;;;;;5053079;28;20059;-76
2022/12/19 06:51:04;;;;;;;33.08;12.93;;;4.30;99.90;;;;;;5052090;28;20053;-76
2022/12/19 06:53:30;;;;;;;27.90;12.02;;;4.30;99.90;;;;;;5064714;28;20044;-74
2022/12/19 06:55:57;;;;;;;27.02;12.88;;;4.30;99.90;;;;;;5060931;28;20055;-74
2022/12/19 06:58:24;;;;;;;29.08;12.38;;;4.30;99.90;;;;;;5053290;28;20067;-74
2022/12/19 07:00:50;;;;;;;28.00;11.93;;;4.60;99.90;;;;;;5053171;28;20060;-73
2022/12/19 07:03:20;;;;;;;37.42;14.35;;;4.40;99.90;;;;;;5062520;28;20048;-73
2022/12/19 07:05:47;;;;;;;32.25;12.52;;;4.30;99.90;;;;;;5072734;28;20051;-74
2022/12/19 07:08:12;;;;;;;36.22;13.43;;;4.40;99.90;;;;;;5073362;28;20106;-73
2022/12/19 07:10:38;;;;;;;38.42;13.90;;;4.30;99.90;;;;;;5070045;28;20045;-74
2022/12/19 07:13:05;;;;;;;33.17;13.50;;;4.40;99.90;;;;;;5055274;28;20506;-74
2022/12/19 07:15:33;;;;;;;30.20;12.80;;;4.30;99.90;;;;;;5059172;28;20045;-74
2022/12/19 07:18:02;;;;;;;32.95;12.38;;;4.40;99.90;;;;;;5051779;28;20065;-73
2022/12/19 07:20:29;;;;;;;28.85;12.38;;;4.40;99.90;;;;;;5054030;28;20140;-75
2022/12/19 07:22:54;;;;;;;31.52;12.02;;;4.40;99.90;;;;;;5071987;28;20124;-79
2022/12/19 07:25:20;;;;;;;24.85;10.82;;;4.40;99.90;;;;;;5055103;28;20183;-73
2022/12/19 07:27:47;;;;;;;29.75;12.40;;;4.50;99.90;;;;;;5072360;28;20040;-72
2022/12/19 07:30:12;;;;;;;27.65;11.80;;;4.50;99.90;;;;;;5054099;28;20051;-72
2022/12/19 07:32:38;;;;;;;30.73;11.18;;;4.50;99.90;;;;;;5072485;28;20127;-72
2022/12/19 07:35:05;;;;;;;32.85;11.98;;;4.50;99.90;;;;;;5072463;28;20508;-73
2022/12/19 07:37:31;;;;;;;30.67;13.02;;;4.50;99.90;;;;;;5054865;28;20098;-74
2022/12/19 07:39:57;;;;;;;31.45;11.00;;;4.60;99.90;;;;;;5070524;28;20045;-73
2022/12/19 07:42:22;;;;;;;25.35;9.15;;;5.00;99.90;;;;;;5072448;28;20498;-73
2022/12/19 07:44:48;;;;;;;32.67;12.32;;;4.60;99.90;;;;;;5054115;28;20048;-73
2022/12/19 07:47:14;;;;;;;24.33;10.10;;;4.60;99.90;;;;;;5054431;28;20048;-74
2022/12/19 07:49:39;;;;;;;32.58;12.15;;;4.60;99.90;;;;;;5067658;28;20045;-74
2022/12/19 07:52:05;;;;;;;27.58;11.00;;;4.70;99.90;;;;;;5035943;28;20053;-74
2022/12/19 07:54:30;;;;;;;25.88;10.52;;;4.70;99.90;;;;;;5046252;28;20045;-74
2022/12/19 07:56:56;;;;;;;30.58;10.20;;;4.70;99.90;;;;;;5051629;28;20053;-74
2022/12/19 07:59:22;;;;;;;30.25;12.52;;;4.70;99.90;;;;;;5052154;28;20178;-74
2022/12/19 08:01:47;;;;;;;27.95;8.85;;;4.80;99.90;;;;;;5052029;28;20474;-74
2022/12/19 08:04:13;;;;;;;29.50;10.68;;;4.80;99.90;;;;;;5054119;28;20118;-74
2022/12/19 08:06:39;;;;;;;29.50;11.07;;;5.10;99.90;;;;;;5063738;28;20048;-74
2022/12/19 08:09:04;;;;;;;26.08;10.77;;;4.80;99.90;;;;;;5052013;28;20045;-74
2022/12/19 08:11:30;;;;;;;30.98;12.07;;;4.90;99.90;;;;;;5071482;28;20497;-74
2022/12/19 08:13:56;;;;;;;23.90;10.23;;;4.90;99.90;;;;;;5071038;28;20044;-74
2022/12/19 08:16:23;;;;;;;;;;;4.90;99.90;;;;;;5070888;28;20053;-74
2022/12/19 08:18:49;;;;;;;23.55;10.02;;;4.90;99.90;;;;;;5071744;28;19920;-74
2022/12/19 08:21:14;;;;;;;28.63;10.60;;;4.90;99.90;;;;;;5071507;28;20130;-74
2022/12/19 08:23:40;;;;;;;22.13;9.52;;;5.00;99.90;;;;;;5071975;28;20045;-74
2022/12/19 08:26:12;;;;;;;31.05;10.70;;;5.10;99.90;;;;;;5059344;28;20041;-74
2022/12/19 08:28:38;;;;;;;29.70;9.18;;;5.10;99.90;;;;;;5056559;28;20127;-74
2022/12/19 08:31:13;;;;;;;23.58;10.15;;;5.10;99.90;;;;;;5060312;28;20048;-72
2022/12/19 08:33:39;;;;;;;21.92;9.15;;;5.10;99.90;;;;;;5057027;28;20044;-74
2022/12/19 08:36:17;;;;;;;24.42;10.68;;;5.20;99.90;;;;;;5070141;28;20062;-74
2022/12/19 08:38:44;;;;;;;26.13;10.00;;;5.20;99.90;;;;;;5067581;28;20048;-74
2022/12/19 08:41:10;;;;;;;20.85;8.77;;;5.80;99.90;;;;;;5069541;28;20047;-74
2022/12/19 08:43:37;;;;;;;25.50;10.32;;;5.30;99.90;;;;;;5071452;28;20083;-74
2022/12/19 08:46:03;;;;;;;25.05;10.07;;;5.30;99.90;;;;;;5052318;28;20123;-74
2022/12/19 08:48:30;;;;;;;22.50;10.10;;;5.30;99.90;;;;;;5065364;28;20056;-74
2022/12/19 08:50:59;;;;;;;27.42;11.32;;;5.40;99.90;;;;;;5051621;28;20056;-74
2022/12/19 08:53:27;;;;;;;25.75;10.80;;;5.40;99.90;;;;;;5050781;28;20083;-74
2022/12/19 08:55:57;;;;;;;22.60;9.85;;;5.40;99.90;;;;;;5050493;28;20068;-74
2022/12/19 08:58:24;;;;;;;26.63;10.40;;;5.40;99.90;;;;;;5037500;28;20120;-73
2022/12/19 09:00:54;;;;;;;31.05;11.10;;;5.50;99.90;;;;;;5070831;28;20045;-74
2022/12/19 09:03:21;;;;;;;29.52;11.32;;;5.50;99.90;;;;;;5070758;28;20048;-74
2022/12/19 09:05:55;;;;;;;27.95;10.43;;;5.60;99.90;;;;;;5070908;28;20539;-74
2022/12/19 09:08:20;;;;;;;26.58;10.82;;;5.60;99.90;;;;;;5049979;28;20110;-74
2022/12/19 09:10:46;;;;;;;32.13;11.88;;;5.60;99.90;;;;;;5043113;28;20048;-76
2022/12/19 09:13:12;;;;;;;27.40;12.20;;;5.70;99.90;;;;;;5045227;28;20083;-76
2022/12/19 09:15:38;;;;;;;29.02;11.15;;;5.80;99.90;;;;;;5060529;28;20041;-75
2022/12/19 09:18:04;;;;;;;29.88;10.98;;;5.70;99.90;;;;;;5059160;28;20053;-75
2022/12/19 09:20:29;;;;;;;;;;;5.80;99.90;;;;;;5041474;28;20052;-75
2022/12/19 09:22:55;;;;;;;20.77;10.25;;;5.80;99.90;;;;;;5059283;28;19928;-75
2022/12/19 09:25:21;;;;;;;25.55;11.10;;;5.90;99.90;;;;;;5042159;28;20041;-75
2022/12/19 09:27:47;;;;;;;27.58;10.95;;;5.90;99.90;;;;;;5060215;28;20075;-74
2022/12/19 09:30:13;;;;;;;24.98;10.57;;;5.90;99.90;;;;;;5067614;28;20048;-75
2022/12/19 09:32:38;;;;;;;24.77;11.35;;;5.90;99.90;;;;;;5070218;28;20190;-77
2022/12/19 09:35:05;;;;;;;27.85;10.90;;;6.00;99.90;;;;;;5069795;28;20131;-76
2022/12/19 09:37:31;;;;;;;25.65;10.45;;;6.00;99.90;;;;;;5040230;28;20063;-76
2022/12/19 09:39:57;;;;;;;23.75;10.38;;;6.10;99.90;;;;;;5035665;28;20056;-76
2022/12/19 09:42:36;;;;;;;23.15;10.50;;;6.10;99.90;;;;;;5070486;28;20072;-76
2022/12/19 09:45:18;;;;;;;24.48;9.85;;;6.10;99.90;;;;;;5069998;28;20174;-75
2022/12/19 09:47:47;;;;;;;24.13;10.32;;;6.10;99.90;;;;;;5070161;28;20045;-76
2022/12/19 09:51:00;;;;;;;25.65;9.57;;;6.10;99.90;;;;;;5070292;28;20183;-76
2022/12/19 09:53:54;;;;;;;23.55;9.48;;;6.10;99.90;;;;;;5066040;28;20048;-76
2022/12/19 09:56:21;;;;;;;23.73;9.25;;;6.10;99.90;;;;;;5068982;28;20056;-76
2022/12/19 09:58:52;;;;;;;28.15;10.75;;;6.20;99.90;;;;;;5070229;28;20059;-76
2022/12/19 10:01:34;;;;;;;20.20;9.35;;;6.20;99.90;;;;;;5050723;28;20052;-76
2022/12/19 10:04:13;;;;;;;21.20;9.32;;;6.20;99.90;;;;;;5070137;28;20489;-76
2022/12/19 10:06:38;;;;;;;19.45;8.90;;;6.30;99.90;;;;;;5069956;28;20094;-76
2022/12/19 10:09:12;;;;;;;20.65;8.93;;;6.30;99.90;;;;;;5061037;28;20085;-76
2022/12/19 10:12:08;;;;;;;21.45;10.57;;;6.30;99.90;;;;;;5050016;28;20095;-76
2022/12/19 10:15:22;;;;;;;19.23;8.65;;;6.30;99.90;;;;;;5032570;28;20063;-76
2022/12/19 10:18:08;;;;;;;21.02;8.38;;;6.40;99.90;;;;;;5037106;28;20068;-76
2022/12/19 10:20:44;;;;;;;17.55;7.65;;;6.40;99.90;;;;;;5070513;28;20097;-76
2022/12/19 10:23:39;;;;;;;17.30;7.43;;;6.50;99.90;;;;;;5069560;28;20040;-76
2022/12/19 10:26:10;;;;;;;19.42;8.23;;;6.50;99.90;;;;;;5058453;28;20048;-76
2022/12/19 10:28:42;;;;;;;20.75;7.82;;;6.40;99.90;;;;;;5034112;28;20052;-76
2022/12/19 10:31:26;;;;;;;20.25;7.88;;;6.50;99.90;;;;;;5068104;28;20048;-76
2022/12/19 10:34:15;;;;;;;16.45;7.32;;;6.50;99.90;;;;;;5049191;28;20049;-76
2022/12/19 10:36:48;;;;;;;16.02;7.47;;;6.60;99.90;;;;;;5032141;28;20491;-76
2022/12/19 10:39:25;;;;;;;19.98;7.88;;;6.60;99.90;;;;;;5015773;28;20128;-76
2022/12/19 10:41:55;;;;;;;16.92;8.10;;;6.60;99.90;;;;;;5031942;28;20057;-76
2022/12/19 10:44:23;;;;;;;18.75;8.52;;;6.60;99.90;;;;;;5048450;28;20557;-76
2022/12/19 10:46:49;;;;;;;18.80;8.15;;;6.60;99.90;;;;;;5061789;28;20048;-76
2022/12/19 10:49:18;;;;;;;19.88;7.90;;;6.60;99.90;;;;;;5069507;28;20393;-77
2022/12/19 10:51:59;;;;;;;15.75;8.35;;;6.60;99.90;;;;;;5067855;28;20401;-75
2022/12/19 10:54:40;;;;;;;17.55;7.75;;;6.70;99.90;;;;;;5063121;28;20447;-76
2022/12/19 10:57:21;;;;;;;16.92;7.60;;;6.70;99.90;;;;;;5039999;28;20049;-76
2022/12/19 11:00:14;;;;;;;17.27;8.02;;;6.70;99.90;;;;;;5042823;28;20053;-76
2022/12/19 11:02:46;;;;;;;17.33;7.22;;;6.70;99.90;;;;;;5029516;28;20084;-76
2022/12/19 11:05:40;;;;;;;15.90;7.47;;;6.80;99.90;;;;;;5058237;28;20055;-76
2022/12/19 11:08:05;;;;;;;17.73;7.60;;;6.80;99.90;;;;;;5061884;28;20052;-76
2022/12/19 11:10:54;;;;;;;27.48;8.55;;;6.80;99.90;;;;;;5060075;28;20077;-76
2022/12/19 11:13:27;;;;;;;15.32;6.72;;;6.80;99.90;;;;;;5043217;28;20674;-76
2022/12/19 11:15:55;;;;;;;14.23;7.05;;;6.80;99.90;;;;;;5062197;28;20111;-77
2022/12/19 11:18:22;;;;;;;16.92;7.30;;;6.90;99.90;;;;;;5041613;28;20037;-78
2022/12/19 11:21:19;;;;;;;17.17;7.50;;;6.90;99.90;;;;;;5063781;28;20058;-77
2022/12/19 11:23:49;;;;;;;16.83;8.20;;;6.90;99.90;;;;;;5040472;28;20425;-77
2022/12/19 11:26:32;;;;;;;17.25;7.63;;;6.90;99.90;;;;;;5058287;28;20060;-77
2022/12/19 11:29:17;;;;;;;16.10;7.72;;;7.00;99.90;;;;;;5045587;28;20051;-78
2022/12/19 11:31:44;;;;;;;15.27;7.45;;;7.00;99.90;;;;;;5057957;28;20494;-76
2022/12/19 11:34:15;;;;;;;15.88;6.80;;;7.00;99.90;;;;;;5066743;28;20048;-77
2022/12/19 11:37:04;;;;;;;17.58;7.60;;;7.00;99.90;;;;;;5062378;28;20069;-76
2022/12/19 11:39:49;;;;;;;17.40;7.35;;;6.90;99.90;;;;;;5039027;28;20057;-76
2022/12/19 11:42:35;;;;;;;17.70;8.07;;;7.00;99.90;;;;;;5060592;28;20045;-76
2022/12/19 11:45:18;;;;;;;18.52;7.57;;;7.00;99.90;;;;;;5062256;28;20047;-76
2022/12/19 11:47:51;;;;;;;17.35;7.03;;;7.00;99.90;;;;;;5063327;28;20045;-76
2022/12/19 11:50:53;;;;;;;27.33;8.52;;;6.90;99.90;;;;;;5050582;28;20055;-76
2022/12/19 11:53:26;;;;;;;15.73;7.43;;;7.00;99.90;;;;;;5066685;28;20075;-75
2022/12/19 11:55:58;;;;;;;17.48;7.47;;;7.00;99.90;;;;;;5061844;28;20044;-77
2022/12/19 11:58:30;;;;;;;18.13;7.43;;;7.00;99.90;;;;;;5050042;28;20075;-77
2022/12/19 12:01:01;;;;;;;14.90;6.60;;;7.00;99.90;;;;;;5047491;28;20102;-77
2022/12/19 12:03:43;;;;;;;16.88;7.93;;;7.00;99.90;;;;;;5063437;28;20114;-76
2022/12/19 12:06:16;;;;;;;16.85;8.50;;;7.00;99.90;;;;;;5064968;28;20559;-76
2022/12/19 12:09:03;;;;;;;14.45;7.22;;;7.10;99.90;;;;;;5069671;28;20048;-76
2022/12/19 12:11:43;;;;;;;;;;;7.20;99.90;;;;;;5068935;28;20048;-77
2022/12/19 12:14:42;;;;;;;17.83;7.18;;;7.20;99.90;;;;;;5030380;28;19925;-77
2022/12/19 12:17:20;;;;;;;13.90;7.07;;;7.20;99.90;;;;;;5068283;28;20127;-75
2022/12/19 12:19:57;;;;;;;14.90;7.03;;;7.30;99.90;;;;;;5049815;28;20394;-75
2022/12/19 12:23:05;;;;;;;13.40;6.63;;;7.30;99.90;;;;;;5048604;28;20048;-75
2022/12/19 12:25:58;;;;;;;14.02;6.40;;;7.40;99.90;;;;;;5047497;28;20206;-75
2022/12/19 12:28:36;;;;;;;15.27;6.40;;;7.40;99.90;;;;;;5048585;28;20052;-76
2022/12/19 12:31:29;;;;;;;13.75;6.40;;;7.40;99.90;;;;;;5050347;28;20048;-76
2022/12/19 12:34:00;;;;;;;11.32;5.82;;;7.50;99.90;;;;;;5040736;28;20060;-76
2022/12/19 12:37:12;;;;;;;16.73;7.18;;;7.50;99.90;;;;;;5048213;28;20409;-75
2022/12/19 12:40:02;;;;;;;12.40;5.65;;;7.50;99.90;;;;;;5066031;28;20055;-76
2022/12/19 12:42:58;;;;;;;14.02;6.97;;;7.50;99.90;;;;;;5050102;28;20822;-76
2022/12/19 12:45:37;;;;;;;14.25;6.45;;;7.50;99.90;;;;;;5051551;28;20131;-75
2022/12/19 12:48:18;;;;;;;12.80;5.93;;;7.50;99.90;;;;;;5069514;28;20138;-75
2022/12/19 12:50:47;;;;;;;14.90;6.13;;;7.50;99.90;;;;;;5071020;28;20076;-75
2022/12/19 12:53:16;;;;;;;16.00;6.80;;;7.50;99.90;;;;;;5068951;28;20056;-79
2022/12/19 12:55:43;;;;;;;13.57;5.30;;;7.50;99.90;;;;;;5046093;28;20044;-75
2022/12/19 12:58:41;;;;;;;14.00;6.43;;;7.60;99.90;;;;;;5066538;28;20105;-76
2022/12/19 13:01:28;;;;;;;14.85;6.22;;;7.60;99.90;;;;;;5032253;28;20529;-76
2022/12/19 13:04:01;;;;;;;13.93;6.13;;;7.60;99.90;;;;;;5069269;28;20155;-75
2022/12/19 13:06:40;;;;;;;12.63;5.57;;;7.60;99.90;;;;;;5046507;28;20036;-76
2022/12/19 13:09:08;;;;;;;12.70;6.78;;;7.60;99.90;;;;;;5050427;28;20052;-76
2022/12/19 13:14:34;;;;;;;12.18;5.53;;;7.70;99.90;;;;;;5047185;28;20056;-76
2022/12/19 13:17:01;;;;;;;11.52;5.57;;;7.70;99.90;;;;;;5050059;28;20064;-77